Terminal Aerodrome Forecast
Issued by NWS

Home | Current Version | Previous Version | Text Only | Print | Product List | Glossary On
Versions: 1 2 3 4 5 6 7 8 9 10 11 12 13 14 15 16 17 18 19 20 21 22 23 24 25 26 27 28 29 30 31 32 33 34
000
FTUS43 KSGF 241803 AAA
TAFJLN
TAF AMD
KJLN 241803Z 2418/2518 23003KT 2SM -SHRA BR VCTS BKN050CB
      TEMPO 2418/2420 1SM SHRA BR BKN003 OVC035
     FM242000 26006KT 2SM -SHRA BR VCTS OVC015CB
     FM242100 26006KT P6SM VCSH OVC005
     FM242300 27010G20KT P6SM OVC008
     FM250100 27010KT P6SM BKN020
     FM250200 27009KT P6SM BKN040
     FM250700 24006KT P6SM SKC=

USA.gov is the U.S. government's official web portal to all federal, state and local government web resources and services.